Time;durP1;ratioP1;P1;durP2;ratioP2;P2;SDS_P1;SDS_P2;PMS_P1;PMS_P2;Temp;Humidity;BMP_temperature;BMP_pressure;BME280_temperature;BME280_humidity;BME280_pressure;Samples;Min_cycle;Max_cycle;Signal;HPM_P1;HPM_P2
2022/10/17 00:00:01;;;;;;;9.15;4.20;;;8.70;99.90;;;;;;8371867;28;20511;-92
2022/10/17 00:04:01;;;;;;;7.80;4.55;;;8.90;99.90;;;;;;8365015;28;20032;-92
2022/10/17 00:08:02;;;;;;;9.25;4.25;;;8.90;99.90;;;;;;8371899;28;20033;-92
2022/10/17 00:12:03;;;;;;;6.57;4.70;;;8.80;99.90;;;;;;8371890;28;20033;-92
2022/10/17 00:16:04;;;;;;;10.93;4.50;;;8.80;99.90;;;;;;8371978;28;20225;-92
2022/10/17 00:20:05;;;;;;;5.80;3.78;;;8.70;99.90;;;;;;8380140;28;20029;-92
2022/10/17 00:24:06;;;;;;;12.60;4.60;;;8.70;99.90;;;;;;8377679;28;20025;-93
2022/10/17 00:28:11;;;;;;;10.10;4.47;;;8.60;99.90;;;;;;8362700;28;20025;-92
2022/10/17 00:32:12;;;;;;;9.93;4.50;;;8.60;99.90;;;;;;8363210;28;20059;-92
2022/10/17 00:36:18;;;;;;;7.80;3.85;;;8.70;99.90;;;;;;8379081;28;20028;-92
2022/10/17 00:40:18;;;;;;;9.40;4.60;;;8.50;99.90;;;;;;8374162;28;20052;-92
2022/10/17 00:44:28;;;;;;;7.57;4.10;;;8.60;99.90;;;;;;8383770;28;20032;-92
2022/10/17 00:48:29;;;;;;;8.88;4.53;;;8.70;99.90;;;;;;8362712;28;20032;-92
2022/10/17 00:52:30;;;;;;;7.30;4.18;;;8.50;99.90;;;;;;8362206;28;20040;-92
2022/10/17 00:56:32;;;;;;;9.60;4.70;;;8.50;99.90;;;;;;8366731;28;20021;-93
2022/10/17 01:00:33;;;;;;;9.25;4.70;;;8.40;99.90;;;;;;8373986;28;20021;-92
2022/10/17 01:04:35;;;;;;;4.85;3.88;;;8.20;99.90;;;;;;8378072;28;20025;-92
2022/10/17 01:08:36;;;;;;;7.78;4.05;;;8.20;99.90;;;;;;8369666;28;20021;-92
2022/10/17 01:12:48;;;;;;;12.48;4.38;;;8.20;99.90;;;;;;8361507;28;20028;-92
2022/10/17 01:17:18;;;;;;;8.68;4.30;;;8.20;99.90;;;;;;8384669;28;20023;-92
2022/10/17 01:21:30;;;;;;;9.13;4.50;;;8.10;99.90;;;;;;8369571;28;20036;-93
2022/10/17 01:25:42;;;;;;;10.50;4.25;;;8.10;99.90;;;;;;8365633;28;20021;-92
2022/10/17 01:29:56;;;;;;;16.08;4.30;;;7.90;99.90;;;;;;8366000;28;20020;-93
2022/10/17 01:34:14;;;;;;;6.65;4.38;;;7.90;99.90;;;;;;8369139;28;20060;-92
2022/10/17 01:38:31;;;;;;;11.23;4.35;;;7.90;99.90;;;;;;8367350;28;20032;-93
2022/10/17 01:42:43;;;;;;;6.70;4.20;;;7.70;99.90;;;;;;8378000;28;20021;-92
2022/10/17 01:46:53;;;;;;;7.82;4.10;;;7.70;99.90;;;;;;8361337;28;20386;-92
2022/10/17 01:51:02;;;;;;;9.40;4.75;;;7.70;99.90;;;;;;8369058;28;20028;-92
2022/10/17 01:55:17;;;;;;;7.45;4.53;;;7.70;99.90;;;;;;8360335;28;20021;-92
2022/10/17 01:59:23;;;;;;;10.40;4.40;;;7.70;99.90;;;;;;8377295;28;20167;-92
2022/10/17 02:03:26;;;;;;;13.15;4.47;;;7.70;99.90;;;;;;8369915;28;20047;-92
2022/10/17 02:07:27;;;;;;;11.10;4.03;;;7.60;99.90;;;;;;8360060;28;20104;-92
2022/10/17 02:11:27;;;;;;;10.55;4.65;;;7.50;99.90;;;;;;8360097;28;20025;-92
2022/10/17 02:15:48;;;;;;;10.63;4.60;;;7.50;99.90;;;;;;8368053;28;20028;-93
2022/10/17 02:19:58;;;;;;;;;;;7.60;99.90;;;;;;8376041;28;20035;-92
2022/10/17 02:24:17;;;;;;;5.63;3.88;;;7.50;99.90;;;;;;8384137;28;19940;-92
2022/10/17 02:28:20;;;;;;;9.30;4.28;;;7.40;99.90;;;;;;8360171;28;20114;-92
2022/10/17 02:32:25;;;;;;;11.13;4.63;;;7.40;99.90;;;;;;8368447;28;20053;-92
2022/10/17 02:36:33;;;;;;;7.32;4.85;;;7.30;99.90;;;;;;8360400;28;20377;-92
2022/10/17 02:40:36;;;;;;;11.35;5.13;;;7.50;99.90;;;;;;8369935;28;20040;-92
2022/10/17 02:44:43;;;;;;;10.82;4.72;;;7.50;99.90;;;;;;8366449;28;20025;-92
2022/10/17 02:48:49;;;;;;;11.90;5.22;;;7.40;99.90;;;;;;8374365;28;20021;-92
2022/10/17 02:53:00;;;;;;;10.80;5.80;;;7.40;99.90;;;;;;8367587;28;20025;-92
2022/10/17 02:57:09;;;;;;;11.55;5.10;;;7.40;99.90;;;;;;8382414;28;20024;-93
2022/10/17 03:01:10;;;;;;;10.57;5.38;;;7.50;99.90;;;;;;8374489;28;20115;-92
2022/10/17 03:05:14;;;;;;;11.02;5.32;;;7.50;99.90;;;;;;8382197;28;20115;-92
2022/10/17 03:09:15;;;;;;;13.73;5.55;;;7.40;99.90;;;;;;8371291;28;20397;-93
2022/10/17 03:13:16;;;;;;;15.43;5.95;;;7.30;99.90;;;;;;8364793;28;20025;-92
2022/10/17 03:17:16;;;;;;;9.55;4.85;;;7.30;99.90;;;;;;8382306;28;20071;-92
2022/10/17 03:21:17;;;;;;;9.95;4.28;;;7.40;99.90;;;;;;8376073;28;20024;-92
2022/10/17 03:25:18;;;;;;;10.10;5.10;;;7.40;99.90;;;;;;8370015;28;20083;-92
2022/10/17 03:29:18;;;;;;;7.82;4.85;;;7.40;99.90;;;;;;8372825;28;20048;-92
2022/10/17 03:33:19;;;;;;;11.27;5.45;;;7.50;99.90;;;;;;8364631;28;20025;-92
2022/10/17 03:37:19;;;;;;;8.27;4.43;;;7.60;99.90;;;;;;8373070;28;20282;-92
2022/10/17 03:41:20;;;;;;;10.07;4.90;;;7.50;99.90;;;;;;8376162;28;20032;-93
2022/10/17 03:45:20;;;;;;;10.13;4.43;;;7.40;99.90;;;;;;8385875;28;20090;-92
2022/10/17 03:49:21;;;;;;;12.57;4.85;;;7.10;99.90;;;;;;8372575;28;20025;-93
2022/10/17 03:53:21;;;;;;;8.40;4.93;;;7.00;99.90;;;;;;8363764;28;20120;-92
2022/10/17 03:57:22;;;;;;;11.38;5.72;;;7.10;99.90;;;;;;8364872;28;20014;-92
2022/10/17 04:01:23;;;;;;;11.48;5.43;;;7.10;99.90;;;;;;8360751;28;20495;-92
2022/10/17 04:05:23;;;;;;;9.30;6.00;;;7.20;99.90;;;;;;8367608;28;20090;-92
2022/10/17 04:09:24;;;;;;;12.52;6.43;;;7.30;99.90;;;;;;8376976;28;20567;-93
2022/10/17 04:13:25;;;;;;;9.20;6.03;;;7.20;99.90;;;;;;8373211;28;20049;-92
2022/10/17 04:17:25;;;;;;;8.50;5.07;;;7.20;99.90;;;;;;8371453;28;20051;-93
2022/10/17 04:21:27;;;;;;;10.75;6.15;;;7.10;99.90;;;;;;8368281;28;20386;-92
2022/10/17 04:25:28;;;;;;;11.25;6.32;;;7.10;99.90;;;;;;8377509;28;20028;-93
2022/10/17 04:29:28;;;;;;;12.60;6.10;;;7.00;99.90;;;;;;8375705;28;20017;-94
2022/10/17 04:33:30;;;;;;;9.68;5.72;;;7.00;99.90;;;;;;8375781;28;20086;-92
2022/10/17 04:37:30;;;;;;;13.55;6.85;;;6.90;99.90;;;;;;8367363;28;20021;-93
2022/10/17 04:41:31;;;;;;;16.88;7.70;;;6.80;99.90;;;;;;8363025;28;20028;-92
2022/10/17 04:45:32;;;;;;;17.77;9.15;;;6.80;99.90;;;;;;8379889;28;20021;-93
2022/10/17 04:49:32;;;;;;;16.02;8.57;;;6.90;99.90;;;;;;8361772;28;20116;-93
2022/10/17 04:53:34;;;;;;;16.40;8.32;;;6.80;99.90;;;;;;8371329;28;20031;-93
2022/10/17 04:57:35;;;;;;;15.10;7.63;;;6.70;99.90;;;;;;8371899;28;20021;-92
2022/10/17 05:01:35;;;;;;;14.90;7.28;;;6.60;99.90;;;;;;8376342;28;20060;-92
2022/10/17 05:05:37;;;;;;;10.82;5.70;;;6.70;99.90;;;;;;8363149;28;20163;-92
2022/10/17 05:09:38;;;;;;;13.63;6.40;;;6.70;99.90;;;;;;8367185;28;20032;-92
2022/10/17 05:13:38;;;;;;;8.98;5.18;;;6.70;99.90;;;;;;8363125;28;20063;-92
2022/10/17 05:17:39;;;;;;;14.80;6.18;;;6.60;99.90;;;;;;8391481;28;20505;-92
2022/10/17 05:21:39;;;;;;;14.85;5.30;;;6.50;99.90;;;;;;8372210;28;20024;-92
2022/10/17 05:25:40;;;;;;;11.82;5.22;;;6.40;99.90;;;;;;8380330;28;20021;-93
2022/10/17 05:29:41;;;;;;;12.20;5.97;;;6.40;99.90;;;;;;8373712;28;20025;-93
2022/10/17 05:33:41;;;;;;;14.20;5.55;;;6.30;99.90;;;;;;8370549;28;20024;-92
2022/10/17 05:37:42;;;;;;;13.60;6.63;;;6.30;99.90;;;;;;8392223;28;20024;-93
2022/10/17 05:41:42;;;;;;;14.38;5.32;;;6.40;99.90;;;;;;8383303;28;20061;-93
2022/10/17 05:45:43;;;;;;;13.07;6.25;;;6.70;99.90;;;;;;8360641;28;20064;-93
2022/10/17 05:49:43;;;;;;;12.38;6.38;;;6.80;99.90;;;;;;8377531;28;20028;-93
2022/10/17 05:53:44;;;;;;;17.08;8.80;;;6.60;99.90;;;;;;8387094;28;20029;-92
2022/10/17 05:57:44;;;;;;;16.35;8.52;;;6.50;99.90;;;;;;8372271;28;20021;-92
2022/10/17 06:01:45;;;;;;;21.60;9.73;;;6.60;99.90;;;;;;8368620;28;20435;-93
2022/10/17 06:05:46;;;;;;;19.52;9.15;;;6.60;99.90;;;;;;8361012;28;20028;-93
2022/10/17 06:09:47;;;;;;;19.10;9.65;;;6.60;99.90;;;;;;8367355;28;20086;-93
2022/10/17 06:13:47;;;;;;;16.50;9.93;;;6.60;99.90;;;;;;8369177;28;20033;-92
2022/10/17 06:31:57;;;;;;;13.32;7.90;;;7.20;99.90;;;;;;8341237;28;20049;-82
2022/10/17 06:35:57;;;;;;;18.08;8.00;;;7.30;99.90;;;;;;8335516;28;20477;-80
2022/10/17 06:39:58;;;;;;;20.92;8.02;;;7.40;99.90;;;;;;8353411;28;20030;-82
2022/10/17 06:43:59;;;;;;;15.55;8.70;;;7.50;99.90;;;;;;8339057;28;20033;-82
2022/10/17 06:48:01;;;;;;;17.27;9.07;;;7.90;99.90;;;;;;8379009;28;20025;-82
2022/10/17 06:52:01;;;;;;;14.85;8.00;;;7.90;99.90;;;;;;8335201;28;20029;-82
2022/10/17 06:56:03;;;;;;;13.18;7.53;;;7.90;99.90;;;;;;8369580;28;20032;-82
2022/10/17 07:00:05;;;;;;;11.88;7.93;;;7.90;99.90;;;;;;8352215;28;20032;-81
2022/10/17 07:04:05;;;;;;;18.23;9.73;;;8.00;99.90;;;;;;8352845;28;20045;-82
2022/10/17 07:08:06;;;;;;;15.70;10.00;;;8.10;99.90;;;;;;8379192;28;20029;-81
2022/10/17 07:12:07;;;;;;;17.10;10.02;;;8.20;99.90;;;;;;8361274;28;20033;-82
2022/10/17 07:16:08;;;;;;;13.75;8.55;;;8.30;99.90;;;;;;8367644;28;20064;-81
2022/10/17 07:20:09;;;;;;;15.57;7.72;;;8.60;99.90;;;;;;8354450;28;20033;-82
2022/10/17 07:24:10;;;;;;;11.68;7.68;;;8.60;99.90;;;;;;8362128;28;20051;-81
2022/10/17 07:28:11;;;;;;;14.52;7.68;;;8.80;99.90;;;;;;8337037;28;20531;-82
2022/10/17 07:32:11;;;;;;;12.43;7.90;;;9.00;99.90;;;;;;8354411;28;20043;-82
2022/10/17 07:36:12;;;;;;;15.20;8.52;;;9.60;99.90;;;;;;8332024;28;20045;-82
2022/10/17 07:40:12;;;;;;;11.52;8.10;;;9.80;99.90;;;;;;8350403;28;20089;-82
2022/10/17 07:44:14;;;;;;;22.17;6.90;;;9.90;99.90;;;;;;8334161;28;20503;-82
2022/10/17 07:48:14;;;;;;;12.30;6.78;;;10.00;99.90;;;;;;8352340;28;20029;-82
2022/10/17 07:52:16;;;;;;;21.83;12.73;;;9.90;99.90;;;;;;8348863;28;20516;-82
2022/10/17 07:56:16;;;;;;;11.00;7.68;;;10.20;99.90;;;;;;8343355;28;20730;-80
2022/10/17 08:00:17;;;;;;;9.20;6.53;;;10.30;99.90;;;;;;8342141;28;20029;-82
2022/10/17 08:04:18;;;;;;;11.52;6.50;;;10.50;99.90;;;;;;8335963;28;20044;-81
2022/10/17 08:08:18;;;;;;;9.55;5.95;;;11.10;99.90;;;;;;8333975;28;20139;-81
2022/10/17 08:12:19;;;;;;;12.95;5.82;;;11.30;99.90;;;;;;8333918;28;20116;-82
2022/10/17 08:16:19;;;;;;;9.07;5.30;;;11.50;99.90;;;;;;8372069;28;20018;-82
2022/10/17 08:20:20;;;;;;;11.07;5.40;;;11.60;99.90;;;;;;8348172;28;20085;-81
2022/10/17 08:24:21;;;;;;;7.10;4.75;;;11.80;99.90;;;;;;8350994;28;20055;-83
2022/10/17 08:28:21;;;;;;;7.20;5.28;;;11.90;99.90;;;;;;8333215;28;20089;-80
2022/10/17 08:32:25;;;;;;;11.73;5.93;;;12.30;99.90;;;;;;8339380;28;20024;-82
2022/10/17 08:36:28;;;;;;;13.20;5.88;;;12.40;99.90;;;;;;8346609;28;20032;-82
2022/10/17 08:40:34;;;;;;;7.38;5.45;;;13.20;99.90;;;;;;8344542;28;20465;-81
2022/10/17 08:45:11;;;;;;;11.02;4.78;;;13.90;99.90;;;;;;8348540;28;20110;-83
2022/10/17 08:49:40;;;;;;;9.10;5.57;;;14.50;99.90;;;;;;8336618;28;20382;-81
2022/10/17 08:53:57;;;;;;;8.07;4.53;;;14.80;99.90;;;;;;8348000;28;20116;-82
2022/10/17 08:57:57;;;;;;;7.90;4.82;;;14.60;99.90;;;;;;8353684;28;20523;-83
2022/10/17 09:02:26;;;;;;;7.07;4.30;;;14.70;99.90;;;;;;8349337;28;20029;-82
2022/10/17 09:06:31;;;;;;;8.00;4.10;;;15.10;99.90;;;;;;8334133;28;20017;-84
2022/10/17 09:10:41;;;;;;;6.47;3.67;;;15.50;99.90;;;;;;8323940;28;20017;-82
2022/10/17 09:15:05;;;;;;;16.10;10.80;;;16.30;99.90;;;;;;8347754;28;20029;-83
2022/10/17 09:19:29;;;;;;;4.93;3.22;;;16.70;99.90;;;;;;8348317;28;20025;-82
2022/10/17 09:23:42;;;;;;;5.38;3.05;;;17.50;99.90;;;;;;8346894;28;20021;-83
2022/10/17 09:27:54;;;;;;;4.63;2.45;;;18.40;99.90;;;;;;8332270;28;20025;-83
2022/10/17 09:32:03;;;;;;;12.68;2.70;;;18.80;99.90;;;;;;8334142;28;20075;-83
2022/10/17 09:36:19;;;;;;;4.20;2.60;;;19.30;99.90;;;;;;8342418;28;20025;-82
2022/10/17 09:40:33;;;;;;;5.93;2.60;;;19.90;99.90;;;;;;8337136;28;20028;-83
2022/10/17 09:44:41;;;;;;;3.72;2.75;;;20.20;99.90;;;;;;8338796;28;20021;-81
2022/10/17 09:48:50;;;;;;;3.72;2.70;;;20.50;99.90;;;;;;8341730;28;20029;-82
2022/10/17 09:52:52;;;;;;;5.78;2.65;;;20.90;99.90;;;;;;8349463;28;20378;-83
2022/10/17 09:57:08;;;;;;;5.10;3.13;;;21.50;99.90;;;;;;8349341;28;20025;-82
2022/10/17 10:01:15;;;;;;;4.70;2.47;;;22.10;99.90;;;;;;8358706;28;20021;-83
2022/10/17 10:05:18;;;;;;;3.85;2.40;;;22.60;99.90;;;;;;8352030;28;20029;-81
2022/10/17 10:09:26;;;;;;;3.80;2.40;;;23.20;99.90;;;;;;8345133;28;20067;-83
2022/10/17 10:13:26;;;;;;;3.92;2.35;;;23.00;99.90;;;;;;8315133;28;20029;-82
2022/10/17 10:17:40;;;;;;;5.78;2.97;;;22.60;99.90;;;;;;8327833;28;20499;-82
2022/10/17 10:21:54;;;;;;;3.20;2.80;;;22.50;99.90;;;;;;8348572;28;20503;-81
2022/10/17 10:26:01;;;;;;;3.05;2.70;;;22.50;99.90;;;;;;8336676;28;20021;-82
2022/10/17 10:30:03;;;;;;;6.25;3.05;;;22.80;99.90;;;;;;8304094;28;20037;-82
2022/10/17 10:34:19;;;;;;;3.97;2.92;;;22.70;99.90;;;;;;8314539;28;20071;-82
2022/10/17 10:38:20;;;;;;;6.90;2.92;;;22.80;99.90;;;;;;8312287;28;20028;-82
2022/10/17 10:42:40;;;;;;;4.05;3.08;;;22.40;99.90;;;;;;8322271;28;20029;-82
2022/10/17 10:46:40;;;;;;;4.30;3.50;;;23.60;99.90;;;;;;8309839;28;20229;-81
2022/10/17 10:50:47;;;;;;;6.47;3.00;;;24.00;99.90;;;;;;8330286;28;20075;-83
2022/10/17 10:54:56;;;;;;;3.78;3.22;;;24.50;99.90;;;;;;8328436;28;20116;-82
2022/10/17 10:59:02;;;;;;;11.50;6.25;;;24.90;99.90;;;;;;8358650;28;20100;-81
2022/10/17 11:03:16;;;;;;;4.22;2.85;;;25.50;99.90;;;;;;8334134;28;20018;-82
2022/10/17 11:07:33;;;;;;;6.72;2.90;;;25.10;99.90;;;;;;8319092;28;20022;-82
2022/10/17 11:11:39;;;;;;;9.05;3.05;;;26.20;99.90;;;;;;8314833;28;20029;-82
2022/10/17 11:15:52;;;;;;;7.13;3.42;;;26.40;99.90;;;;;;8338011;28;20021;-82
2022/10/17 11:20:08;;;;;;;9.10;2.42;;;27.20;99.90;;;;;;8344645;28;20040;-82
2022/10/17 11:24:42;;;;;;;5.47;2.60;;;28.00;99.90;;;;;;8312503;28;20029;-81
2022/10/17 11:28:42;;;;;;;5.47;2.92;;;27.80;99.90;;;;;;8293202;28;20510;-82
2022/10/17 11:32:46;;;;;;;3.80;2.70;;;27.80;99.90;;;;;;8337293;28;20032;-82
2022/10/17 11:36:56;;;;;;;4.32;2.72;;;27.90;99.90;;;;;;8337892;28;20592;-82
2022/10/17 11:40:59;;;;;;;6.10;2.83;;;27.70;99.90;;;;;;8328987;28;20025;-82
2022/10/17 11:45:05;;;;;;;6.47;2.50;;;27.20;99.90;;;;;;8336426;28;20064;-81
2022/10/17 11:49:13;;;;;;;6.68;2.90;;;27.90;99.90;;;;;;8345204;28;20033;-80
2022/10/17 11:53:16;;;;;;;5.65;2.42;;;27.80;99.90;;;;;;8344519;28;20656;-82
2022/10/17 11:57:53;;;;;;;4.18;2.58;;;27.70;99.90;;;;;;8344840;28;20060;-82
2022/10/17 12:02:03;;;;;;;2.88;2.00;;;27.80;99.90;;;;;;8336603;28;20890;-82
2022/10/17 12:06:12;;;;;;;10.10;2.17;;;28.00;99.90;;;;;;8336331;28;20040;-82
2022/10/17 12:10:37;;;;;;;2.47;1.88;;;28.00;99.70;;;;;;8344182;28;20090;-82
2022/10/17 12:14:45;;;;;;;5.82;1.98;;;28.40;96.80;;;;;;8343275;28;20027;-81
2022/10/17 12:19:19;;;;;;;3.28;1.80;;;29.30;96.80;;;;;;8335524;28;20021;-82
2022/10/17 12:23:26;;;;;;;7.03;1.77;;;28.50;95.60;;;;;;8324559;28;20017;-82
2022/10/17 12:27:46;;;;;;;3.25;1.90;;;27.00;98.60;;;;;;8340756;28;20029;-82
2022/10/17 12:31:47;;;;;;;3.05;1.90;;;25.50;99.90;;;;;;8351248;28;20048;-82
2022/10/17 12:35:50;;;;;;;2.00;1.80;;;24.60;99.90;;;;;;8340414;28;20021;-82
2022/10/17 12:39:50;;;;;;;3.47;1.85;;;24.10;99.90;;;;;;8307036;28;20109;-81
2022/10/17 12:43:53;;;;;;;3.45;2.00;;;23.70;99.90;;;;;;8334434;28;20052;-82
2022/10/17 12:47:53;;;;;;;5.88;2.17;;;23.50;99.90;;;;;;8330046;28;20025;-81
2022/10/17 12:52:33;;;;;;;3.92;2.00;;;23.40;99.90;;;;;;8304247;28;20496;-82
2022/10/17 12:56:37;;;;;;;5.40;2.10;;;23.40;99.90;;;;;;8331139;28;20021;-82
2022/10/17 13:01:04;;;;;;;3.33;2.33;;;23.30;99.90;;;;;;8338955;28;20444;-82
2022/10/17 13:05:12;;;;;;;3.75;1.90;;;23.30;99.90;;;;;;8328540;28;20509;-82
2022/10/17 13:09:25;;;;;;;5.68;1.90;;;23.20;99.90;;;;;;8339409;28;20044;-82
2022/10/17 13:13:49;;;;;;;6.47;2.10;;;23.40;99.90;;;;;;8345533;28;20055;-82
2022/10/17 13:17:57;;;;;;;3.65;1.90;;;23.30;99.90;;;;;;8325351;28;20017;-82
2022/10/17 13:22:00;;;;;;;2.47;2.28;;;23.30;99.90;;;;;;8359210;28;20104;-81
2022/10/17 13:26:06;;;;;;;5.10;2.35;;;23.10;99.90;;;;;;8358444;28;20447;-81
2022/10/17 13:30:24;;;;;;;3.95;2.20;;;23.00;99.90;;;;;;8333597;28;20037;-82
2022/10/17 13:34:25;;;;;;;3.40;2.20;;;22.80;99.90;;;;;;8350716;28;20024;-82
2022/10/17 13:38:31;;;;;;;4.45;2.25;;;22.70;99.90;;;;;;8341779;28;20017;-81
2022/10/17 13:42:40;;;;;;;5.75;2.50;;;23.10;99.90;;;;;;8341295;28;20055;-82
2022/10/17 13:46:41;;;;;;;6.00;2.40;;;23.50;99.90;;;;;;8340470;28;20091;-82
2022/10/17 13:50:43;;;;;;;7.38;2.60;;;24.20;99.90;;;;;;8316660;28;20049;-81
2022/10/17 13:54:46;;;;;;;5.28;2.45;;;24.80;99.90;;;;;;8340469;28;20036;-81
2022/10/17 13:58:48;;;;;;;10.13;2.35;;;25.00;99.90;;;;;;8340864;28;20025;-82
2022/10/17 14:02:48;;;;;;;3.33;2.10;;;24.80;99.90;;;;;;8343798;28;20034;-82
2022/10/17 14:06:49;;;;;;;4.07;2.20;;;24.70;99.90;;;;;;8329449;28;20025;-82
2022/10/17 14:10:50;;;;;;;5.63;2.10;;;24.60;99.90;;;;;;8333133;28;20515;-82
2022/10/17 14:14:52;;;;;;;2.20;1.90;;;24.50;99.90;;;;;;8331193;28;20029;-82
2022/10/17 14:18:54;;;;;;;4.55;2.10;;;24.10;99.90;;;;;;8358158;28;20510;-82
2022/10/17 14:22:55;;;;;;;3.78;2.05;;;23.80;99.90;;;;;;8332167;28;20024;-82
2022/10/17 14:26:58;;;;;;;4.43;2.13;;;23.70;99.90;;;;;;8339919;28;20029;-80
2022/10/17 14:31:30;;;;;;;5.60;2.42;;;23.60;99.90;;;;;;8320926;28;20044;-82
2022/10/17 14:35:31;;;;;;;4.22;2.13;;;24.10;99.90;;;;;;8316131;28;20036;-83
2022/10/17 14:39:32;;;;;;;6.88;2.10;;;25.00;99.90;;;;;;8346465;28;20044;-81
2022/10/17 14:43:32;;;;;;;4.28;2.22;;;25.50;99.90;;;;;;8364184;28;20464;-82
2022/10/17 14:47:33;;;;;;;3.90;2.00;;;24.60;99.90;;;;;;8338491;28;20132;-82
2022/10/17 14:51:34;;;;;;;4.47;2.10;;;23.40;99.90;;;;;;8346524;28;20021;-82
2022/10/17 14:55:35;;;;;;;4.07;2.25;;;22.50;99.90;;;;;;8337384;28;20542;-82
2022/10/17 14:59:36;;;;;;;3.25;2.20;;;22.00;99.90;;;;;;8340814;28;20056;-81
2022/10/17 15:03:36;;;;;;;5.90;2.58;;;21.60;99.90;;;;;;8328852;28;20041;-82
2022/10/17 15:07:37;;;;;;;10.68;2.50;;;21.30;99.90;;;;;;8325276;28;20041;-82
2022/10/17 15:11:38;;;;;;;2.90;2.35;;;21.00;99.90;;;;;;8313534;28;20026;-83
2022/10/17 15:15:39;;;;;;;7.47;3.22;;;20.70;99.90;;;;;;8303655;28;20098;-82
2022/10/17 15:19:40;;;;;;;4.35;2.90;;;20.50;99.90;;;;;;8322492;28;20020;-82
2022/10/17 15:23:41;;;;;;;6.68;2.90;;;20.20;99.90;;;;;;8302517;28;20141;-82
2022/10/17 15:27:41;;;;;;;7.22;3.05;;;19.90;99.90;;;;;;8306851;28;20485;-82
2022/10/17 15:31:42;;;;;;;6.32;3.35;;;19.70;99.90;;;;;;8314982;28;20022;-85
2022/10/17 15:35:42;;;;;;;11.25;3.28;;;19.60;99.90;;;;;;8309957;28;20021;-82
2022/10/17 15:39:44;;;;;;;12.20;2.80;;;19.60;99.90;;;;;;8315350;28;20026;-81
2022/10/17 15:43:47;;;;;;;5.55;2.55;;;19.50;99.90;;;;;;8311237;28;20028;-82
2022/10/17 15:47:54;;;;;;;5.75;2.75;;;19.30;99.90;;;;;;8326760;28;20052;-82
2022/10/17 15:51:55;;;;;;;7.47;2.70;;;19.20;99.90;;;;;;8315381;28;20036;-82
2022/10/17 15:55:56;;;;;;;12.13;2.90;;;18.90;99.90;;;;;;8352606;28;20370;-83
2022/10/17 15:59:59;;;;;;;3.80;2.53;;;18.60;99.90;;;;;;8337002;28;20076;-82
2022/10/17 16:03:59;;;;;;;5.70;2.97;;;18.50;99.90;;;;;;8326232;28;20035;-82
2022/10/17 16:08:00;;;;;;;5.72;2.92;;;18.20;99.90;;;;;;8313778;28;20030;-82
2022/10/17 16:12:02;;;;;;;6.70;2.97;;;18.10;99.90;;;;;;8324919;28;20607;-81
2022/10/17 16:16:02;;;;;;;8.13;2.97;;;18.00;99.90;;;;;;8334814;28;20029;-81
2022/10/17 16:20:03;;;;;;;5.80;2.83;;;17.70;99.90;;;;;;8334025;28;20029;-83
2022/10/17 16:24:04;;;;;;;4.57;2.78;;;17.40;99.90;;;;;;8325250;28;20387;-81
2022/10/17 16:28:07;;;;;;;7.18;3.38;;;17.10;99.90;;;;;;8329636;28;20033;-81
2022/10/17 16:32:08;;;;;;;4.60;3.47;;;16.80;99.90;;;;;;8343388;28;20110;-82
2022/10/17 16:36:09;;;;;;;7.32;3.67;;;16.50;99.90;;;;;;8323183;28;20041;-81
2022/10/17 16:40:10;;;;;;;5.35;3.55;;;16.50;99.90;;;;;;8345122;28;20059;-81
2022/10/17 16:44:13;;;;;;;12.00;4.15;;;16.50;99.90;;;;;;8345276;28;20095;-82
2022/10/17 16:48:14;;;;;;;18.55;3.75;;;16.30;99.90;;;;;;8343672;28;20404;-82
2022/10/17 16:52:14;;;;;;;10.73;3.45;;;15.90;99.90;;;;;;8361844;28;20029;-82
2022/10/17 16:56:20;;;;;;;14.85;4.10;;;15.70;99.90;;;;;;8352897;28;20033;-82
2022/10/17 17:00:20;;;;;;;5.45;4.15;;;15.70;99.90;;;;;;8328282;28;20021;-82
2022/10/17 17:04:21;;;;;;;9.23;4.50;;;15.70;99.90;;;;;;8323376;28;20095;-81
2022/10/17 17:08:21;;;;;;;6.47;3.40;;;15.70;99.90;;;;;;8315719;28;20025;-82
2022/10/17 17:12:22;;;;;;;6.53;3.80;;;15.60;99.90;;;;;;8311458;28;20029;-80
2022/10/17 17:16:24;;;;;;;6.07;4.07;;;15.30;99.90;;;;;;8339433;28;20100;-80
2022/10/17 17:20:25;;;;;;;9.48;4.13;;;15.10;99.90;;;;;;8329434;28;20032;-81
2022/10/17 17:24:27;;;;;;;8.55;3.72;;;15.10;99.90;;;;;;8321954;28;20032;-82
2022/10/17 17:28:27;;;;;;;12.63;5.00;;;14.90;99.90;;;;;;8366412;28;20475;-80
2022/10/17 17:32:28;;;;;;;11.68;5.43;;;14.70;99.90;;;;;;8328976;28;20140;-80
2022/10/17 17:36:31;;;;;;;16.65;5.20;;;15.00;99.90;;;;;;8328745;28;20028;-82
2022/10/17 17:40:33;;;;;;;19.95;6.45;;;14.70;99.90;;;;;;8350061;28;20021;-82
2022/10/17 17:44:33;;;;;;;14.73;6.63;;;14.60;99.90;;;;;;8335375;28;20405;-82
2022/10/17 17:48:39;;;;;;;9.18;6.22;;;14.60;99.90;;;;;;8358772;28;20017;-82
2022/10/17 17:52:41;;;;;;;11.23;6.00;;;14.50;99.90;;;;;;8348766;28;20078;-81
2022/10/17 17:56:41;;;;;;;11.90;6.68;;;14.40;99.90;;;;;;8351099;28;20017;-80
2022/10/17 18:00:42;;;;;;;10.75;5.78;;;14.30;99.90;;;;;;8334588;28;20079;-82
2022/10/17 18:04:42;;;;;;;9.43;5.10;;;14.20;99.90;;;;;;8339416;28;20190;-81
2022/10/17 18:08:46;;;;;;;15.43;6.15;;;14.00;99.90;;;;;;8342711;28;20022;-81
2022/10/17 18:12:46;;;;;;;12.57;7.38;;;13.90;99.90;;;;;;8367750;28;20080;-81
2022/10/17 18:16:47;;;;;;;15.60;7.43;;;13.80;99.90;;;;;;8349019;28;20028;-80
2022/10/17 18:20:47;;;;;;;16.83;8.50;;;13.70;99.90;;;;;;8340031;28;20399;-82
2022/10/17 18:24:48;;;;;;;14.85;7.95;;;13.70;99.90;;;;;;8348350;28;20677;-81
2022/10/17 18:28:49;;;;;;;11.50;7.57;;;13.60;99.90;;;;;;8351217;28;20057;-81
2022/10/17 18:32:50;;;;;;;14.20;9.23;;;13.40;99.90;;;;;;8340808;28;20135;-80
2022/10/17 18:36:51;;;;;;;11.77;8.45;;;13.10;99.90;;;;;;8349654;28;20033;-80
2022/10/17 18:41:02;;;;;;;14.95;9.70;;;13.00;99.90;;;;;;8330514;28;20518;-81
2022/10/17 18:45:04;;;;;;;;;;;13.10;99.90;;;;;;8324178;28;20060;-81
2022/10/17 18:49:09;;;;;;;11.90;6.45;;;13.20;99.90;;;;;;8347673;28;19912;-81
2022/10/17 18:53:09;;;;;;;12.73;6.82;;;13.30;99.90;;;;;;8366144;28;20171;-81
2022/10/17 18:57:10;;;;;;;13.95;7.07;;;13.20;99.90;;;;;;8348409;28;20443;-81
2022/10/17 19:01:14;;;;;;;11.70;7.90;;;13.10;99.90;;;;;;8339060;28;20108;-81
2022/10/17 19:05:14;;;;;;;13.63;8.18;;;12.90;99.90;;;;;;8351417;28;20728;-81
2022/10/17 19:09:15;;;;;;;13.07;8.07;;;12.70;99.90;;;;;;8312678;28;20028;-80
2022/10/17 19:13:16;;;;;;;16.58;8.40;;;12.70;99.90;;;;;;8304328;28;20025;-81
2022/10/17 19:17:16;;;;;;;11.43;7.78;;;12.70;99.90;;;;;;8342641;28;20033;-81
2022/10/17 19:21:17;;;;;;;14.38;8.65;;;12.70;99.90;;;;;;8337345;28;20032;-82
2022/10/17 19:25:18;;;;;;;17.88;9.43;;;12.50;99.90;;;;;;8324050;28;20160;-82
2022/10/17 19:29:20;;;;;;;17.67;10.80;;;12.40;99.90;;;;;;8340285;28;20402;-80
2022/10/17 19:33:21;;;;;;;17.88;11.10;;;12.40;99.90;;;;;;8319720;28;20061;-80
2022/10/17 19:37:21;;;;;;;18.10;11.55;;;12.30;99.90;;;;;;8324099;28;20032;-81
2022/10/17 19:41:22;;;;;;;18.52;11.30;;;12.30;99.90;;;;;;8303296;28;20027;-81
2022/10/17 19:45:23;;;;;;;17.95;10.35;;;12.20;99.90;;;;;;8338023;28;20028;-81
2022/10/17 19:49:23;;;;;;;20.55;10.00;;;12.20;99.90;;;;;;8339297;28;20020;-80
2022/10/17 19:53:26;;;;;;;15.13;8.85;;;12.20;99.90;;;;;;8347386;28;20021;-82
2022/10/17 19:57:27;;;;;;;16.48;8.85;;;12.00;99.90;;;;;;8339565;28;20033;-81
2022/10/17 20:01:31;;;;;;;16.13;9.52;;;11.90;99.90;;;;;;8356967;28;20562;-82
2022/10/17 20:05:32;;;;;;;18.83;9.70;;;11.80;99.90;;;;;;8353409;28;20104;-81
2022/10/17 20:09:32;;;;;;;18.90;11.68;;;11.70;99.90;;;;;;8342642;28;20032;-81
2022/10/17 20:13:35;;;;;;;21.48;11.95;;;11.60;99.90;;;;;;8345425;28;20021;-81
2022/10/17 20:17:35;;;;;;;16.73;11.90;;;11.60;99.90;;;;;;8322348;28;20036;-80
2022/10/17 20:21:38;;;;;;;18.92;11.05;;;11.50;99.90;;;;;;8304156;28;20048;-80
2022/10/17 20:25:38;;;;;;;12.65;7.68;;;11.50;99.90;;;;;;8343367;28;20070;-81
2022/10/17 20:29:39;;;;;;;21.98;8.98;;;11.40;99.90;;;;;;8330038;28;20079;-80
2022/10/17 20:33:43;;;;;;;18.58;9.60;;;11.30;99.90;;;;;;8365860;28;20032;-80
2022/10/17 20:37:43;;;;;;;16.77;10.20;;;11.30;99.90;;;;;;8350513;28;20480;-80
2022/10/17 20:41:45;;;;;;;21.15;11.93;;;11.30;99.90;;;;;;8342088;28;20095;-80
2022/10/17 20:45:45;;;;;;;17.90;10.70;;;11.10;99.90;;;;;;8343402;28;20013;-81
2022/10/17 20:49:46;;;;;;;20.45;10.98;;;11.00;99.90;;;;;;8350775;28;20013;-80
2022/10/17 20:53:47;;;;;;;13.77;9.00;;;10.90;99.90;;;;;;8343582;28;20060;-79
2022/10/17 20:57:52;;;;;;;23.40;10.32;;;10.90;99.90;;;;;;8336550;28;20061;-80
2022/10/17 21:01:53;;;;;;;19.10;10.30;;;10.80;99.90;;;;;;8344411;28;20028;-81
2022/10/17 21:05:53;;;;;;;18.27;10.70;;;10.80;99.90;;;;;;8334423;28;20051;-79
2022/10/17 21:09:54;;;;;;;23.58;10.50;;;10.70;99.90;;;;;;8351779;28;20025;-80
2022/10/17 21:14:04;;;;;;;19.10;11.55;;;10.70;99.90;;;;;;8351492;28;20040;-80
2022/10/17 21:18:04;;;;;;;18.40;9.83;;;10.70;99.90;;;;;;8370816;28;20535;-80
2022/10/17 21:22:05;;;;;;;19.58;9.07;;;10.70;99.90;;;;;;8371480;28;20089;-81